createdAt,value
2018-02-09T00:01:35.338Z,97760.55
2018-02-09T00:04:06.403Z,97767.06
2018-02-09T00:06:37.450Z,97768.53
2018-02-09T00:09:08.514Z,97768.49
2018-02-09T00:11:39.575Z,97761.17
2018-02-09T00:14:10.612Z,97768.59
2018-02-09T00:16:41.683Z,97766.19
2018-02-09T00:19:12.779Z,97765.18
2018-02-09T00:21:43.872Z,97760.84
2018-02-09T00:24:14.938Z,97760.04
2018-02-09T00:26:46.025Z,97763.31
2018-02-09T00:29:17.067Z,97757.26
2018-02-09T00:31:48.186Z,97759.86
2018-02-09T00:34:19.230Z,97761.16
2018-02-09T00:36:50.310Z,97767.88
2018-02-09T00:39:21.423Z,97757.42
2018-02-09T00:41:52.468Z,97762.50
2018-02-09T00:44:23.506Z,97761.86
2018-02-09T00:46:54.555Z,97752.45
2018-02-09T00:49:25.623Z,97750.59
2018-02-09T00:51:56.705Z,97745.92
2018-02-09T00:54:27.772Z,97751.62
2018-02-09T00:56:58.872Z,97744.03
2018-02-09T00:59:29.951Z,97747.90
2018-02-09T01:02:00.987Z,97743.84
2018-02-09T01:04:32.078Z,97750.70
2018-02-09T01:07:03.179Z,97748.28
2018-02-09T01:09:34.311Z,97745.16
2018-02-09T01:12:05.370Z,97741.34
2018-02-09T01:14:37.089Z,97744.98
2018-02-09T01:17:08.201Z,97738.44
2018-02-09T01:19:39.864Z,97737.41
2018-02-09T01:22:10.886Z,97743.77
2018-02-09T01:24:41.961Z,97733.88
2018-02-09T01:27:12.998Z,97738.80
2018-02-09T01:29:43.998Z,97732.66
2018-02-09T01:32:15.050Z,97740.18
2018-02-09T01:34:46.114Z,97731.17
2018-02-09T01:37:17.218Z,97733.47
2018-02-09T01:39:48.297Z,97728.17
2018-02-09T01:42:19.369Z,97730.27
2018-02-09T01:44:50.529Z,97729.05
2018-02-09T01:47:21.607Z,97733.80
2018-02-09T01:50:05.204Z,97735.14
2018-02-09T01:52:36.350Z,97740.73
2018-02-09T01:55:07.409Z,97733.36
2018-02-09T01:57:38.493Z,97733.41
2018-02-09T02:00:09.548Z,97734.71
2018-02-09T02:02:47.647Z,97735.56
2018-02-09T02:05:18.685Z,97735.34
2018-02-09T02:07:49.783Z,97731.53
2018-02-09T02:10:20.857Z,97732.97
2018-02-09T02:12:51.917Z,97731.36
2018-02-09T02:15:23.011Z,97726.25
2018-02-09T02:17:54.125Z,97724.69
2018-02-09T02:20:25.250Z,97724.84
2018-02-09T02:22:56.290Z,97726.42
2018-02-09T02:25:27.385Z,97717.28
2018-02-09T02:27:58.475Z,97716.73
2018-02-09T02:30:29.563Z,97709.70
2018-02-09T02:33:00.659Z,97713.52
2018-02-09T02:35:31.708Z,97713.37
2018-02-09T02:38:02.786Z,97716.71
2018-02-09T02:40:33.839Z,97707.73
2018-02-09T02:43:04.923Z,97704.67
2018-02-09T02:45:36.005Z,97712.16
2018-02-09T02:48:07.074Z,97707.95
2018-02-09T02:50:38.185Z,97710.64
2018-02-09T02:53:09.268Z,97700.43
2018-02-09T02:55:40.351Z,97692.01
2018-02-09T02:58:11.410Z,97692.53
2018-02-09T03:00:42.503Z,97694.14
2018-02-09T03:03:13.585Z,97700.77
2018-02-09T03:05:44.669Z,97700.30
2018-02-09T03:08:15.739Z,97694.51
2018-02-09T03:10:46.862Z,97698.66
2018-02-09T03:13:17.936Z,97694.17
2018-02-09T03:15:49.013Z,97698.11
2018-02-09T03:18:20.114Z,97697.15
2018-02-09T03:20:51.173Z,97691.64
2018-02-09T03:23:22.257Z,97690.27
2018-02-09T03:25:53.291Z,97694.27
2018-02-09T03:28:24.377Z,97685.28
2018-02-09T03:30:55.434Z,97694.33
2018-02-09T03:33:26.466Z,97690.39
2018-02-09T03:35:57.525Z,97688.06
2018-02-09T03:38:28.598Z,97690.52
2018-02-09T03:40:59.666Z,97691.32
2018-02-09T03:43:30.717Z,97687.05
2018-02-09T03:46:01.817Z,97685.26
2018-02-09T03:48:32.873Z,97683.00
2018-02-09T03:51:04.435Z,97683.86
2018-02-09T03:53:35.475Z,97678.17
2018-02-09T03:56:06.536Z,97682.99
2018-02-09T03:58:38.196Z,97682.46
2018-02-09T04:01:09.259Z,97680.48
2018-02-09T04:03:40.336Z,97688.01
2018-02-09T04:06:11.424Z,97686.40
2018-02-09T04:08:42.515Z,97684.20
2018-02-09T04:11:13.627Z,97683.52
2018-02-09T04:13:44.691Z,97688.91
2018-02-09T04:16:15.756Z,97689.77
2018-02-09T04:18:46.858Z,97688.87
2018-02-09T04:21:18.013Z,97690.39
2018-02-09T04:23:49.080Z,97685.59
2018-02-09T04:26:20.139Z,97679.19
2018-02-09T04:28:51.236Z,97680.52
2018-02-09T04:31:22.335Z,97677.64
2018-02-09T04:33:53.421Z,97683.21
2018-02-09T04:36:24.466Z,97678.01
2018-02-09T04:38:55.603Z,97676.53
2018-02-09T04:41:26.699Z,97669.66
2018-02-09T04:43:57.795Z,97678.57
2018-02-09T04:46:28.819Z,97673.77
2018-02-09T04:49:01.340Z,97675.59
2018-02-09T04:51:32.411Z,97672.31
2018-02-09T04:54:03.452Z,97669.53
2018-02-09T04:56:34.482Z,97674.20
2018-02-09T04:59:05.525Z,97667.48
2018-02-09T05:01:36.623Z,97669.09
2018-02-09T05:04:07.657Z,97669.94
2018-02-09T05:06:38.825Z,97664.73
2018-02-09T05:09:09.898Z,97663.87
2018-02-09T05:11:41.010Z,97656.80
2018-02-09T05:14:12.123Z,97661.88
2018-02-09T05:16:43.191Z,97657.24
2018-02-09T05:19:14.221Z,97658.23
2018-02-09T05:21:45.374Z,97659.47
2018-02-09T05:24:16.487Z,97659.13
2018-02-09T05:26:47.592Z,97653.45
2018-02-09T05:29:18.656Z,97662.93
2018-02-09T05:31:49.724Z,97657.63
2018-02-09T05:34:20.775Z,97663.23
2018-02-09T05:36:51.834Z,97667.83
2018-02-09T05:39:22.906Z,97659.24
2018-02-09T05:41:53.987Z,97668.23
2018-02-09T05:44:25.067Z,97653.68
2018-02-09T05:46:56.167Z,97660.21
2018-02-09T05:49:27.239Z,97661.48
2018-02-09T05:51:58.301Z,97659.56
2018-02-09T05:54:29.353Z,97660.95
2018-02-09T05:57:00.444Z,97658.11
2018-02-09T05:59:31.562Z,97658.08
2018-02-09T06:02:02.711Z,97659.66
2018-02-09T06:04:33.767Z,97661.27
2018-02-09T06:07:04.815Z,97662.66
2018-02-09T06:09:35.912Z,97662.53
2018-02-09T06:12:07.003Z,97661.48
2018-02-09T06:14:38.080Z,97654.61
2018-02-09T06:17:09.144Z,97655.17
2018-02-09T06:19:40.219Z,97654.88
2018-02-09T06:22:11.289Z,97657.52
2018-02-09T06:24:42.420Z,97654.42
2018-02-09T06:27:13.536Z,97654.94
2018-02-09T06:29:44.611Z,97652.36
2018-02-09T06:32:15.731Z,97648.38
2018-02-09T06:34:46.798Z,97651.81
2018-02-09T06:37:17.846Z,97653.11
2018-02-09T06:39:48.917Z,97649.80
2018-02-09T06:42:20.001Z,97654.30
2018-02-09T06:44:51.091Z,97654.33
2018-02-09T06:47:22.264Z,97658.52
2018-02-09T06:49:53.340Z,97660.16
2018-02-09T06:52:24.450Z,97652.84
2018-02-09T06:54:55.478Z,97654.95
2018-02-09T06:57:26.503Z,97657.34
2018-02-09T06:59:57.604Z,97654.36
2018-02-09T07:02:28.675Z,97662.44
2018-02-09T07:04:59.755Z,97657.64
2018-02-09T07:07:30.788Z,97658.59
2018-02-09T07:10:01.876Z,97654.91
2018-02-09T07:12:32.954Z,97653.97
2018-02-09T07:15:04.020Z,97656.38
2018-02-09T07:17:35.116Z,97651.52
2018-02-09T07:20:06.324Z,97647.80
2018-02-09T07:22:37.420Z,97648.29
2018-02-09T07:25:08.484Z,97640.98
2018-02-09T07:27:39.590Z,97646.48
2018-02-09T07:30:10.678Z,97642.08
2018-02-09T07:32:41.789Z,97640.38
2018-02-09T07:35:12.856Z,97641.89
2018-02-09T07:37:43.925Z,97637.38
2018-02-09T07:40:15.011Z,97638.78
2018-02-09T07:42:46.070Z,97638.97
2018-02-09T07:45:17.095Z,97637.87
2018-02-09T07:47:48.163Z,97635.45
2018-02-09T07:50:19.229Z,97630.45
2018-02-09T07:52:50.309Z,97624.53
2018-02-09T07:55:21.390Z,97625.73
2018-02-09T07:57:52.504Z,97627.13
2018-02-09T08:00:23.558Z,97622.70
2018-02-09T08:02:54.640Z,97629.25
2018-02-09T08:05:25.770Z,97624.61
2018-02-09T08:07:56.817Z,97622.13
2018-02-09T08:10:27.895Z,97628.55
2018-02-09T08:12:58.982Z,97628.53
2018-02-09T08:15:30.135Z,97616.81
2018-02-09T08:18:01.211Z,97619.65
2018-02-09T08:20:32.359Z,97618.30
2018-02-09T08:23:03.446Z,97613.20
2018-02-09T08:25:34.532Z,97614.11
2018-02-09T08:28:05.631Z,97615.92
2018-02-09T08:30:36.719Z,97613.61
2018-02-09T08:33:07.808Z,97607.69
2018-02-09T08:35:38.873Z,97610.27
2018-02-09T08:38:09.980Z,97612.03
2018-02-09T08:40:41.071Z,97603.36
2018-02-09T08:43:12.096Z,97608.10
2018-02-09T08:45:43.181Z,97603.28
2018-02-09T08:48:14.225Z,97607.30
2018-02-09T08:50:45.311Z,97601.75
2018-02-09T08:53:16.391Z,97598.29
2018-02-09T08:55:47.490Z,97599.33
2018-02-09T08:58:18.530Z,97606.00
2018-02-09T09:00:49.616Z,97598.12
2018-02-09T09:03:20.731Z,97594.94
2018-02-09T09:05:51.808Z,97596.41
2018-02-09T09:08:22.887Z,97597.02
2018-02-09T09:10:53.990Z,97595.39
2018-02-09T09:13:25.065Z,97589.38
2018-02-09T09:15:56.222Z,97582.24
2018-02-09T09:18:27.342Z,97585.18
2018-02-09T09:20:58.466Z,97580.98
2018-02-09T09:23:29.550Z,97583.70
2018-02-09T09:26:00.645Z,97584.52
2018-02-09T09:28:31.677Z,97574.22
2018-02-09T09:31:02.876Z,97572.56
2018-02-09T09:33:33.955Z,97564.53
2018-02-09T09:36:05.063Z,97569.34
2018-02-09T09:38:36.138Z,97568.03
2018-02-09T09:41:07.264Z,97566.80
2018-02-09T09:43:38.324Z,97558.92
2018-02-09T09:46:09.387Z,97559.61
2018-02-09T09:48:40.478Z,97560.80
2018-02-09T09:51:11.664Z,97560.17
2018-02-09T09:53:42.747Z,97557.84
2018-02-09T09:56:13.852Z,97558.75
2018-02-09T09:58:44.901Z,97555.33
2018-02-09T10:01:21.043Z,97549.91
2018-02-09T10:03:52.118Z,97550.16
2018-02-09T10:06:23.170Z,97544.03
2018-02-09T10:08:54.243Z,97543.41
2018-02-09T10:11:25.329Z,97546.75
2018-02-09T10:13:56.409Z,97539.91
2018-02-09T10:16:27.486Z,97538.81
2018-02-09T10:18:58.619Z,97539.58
2018-02-09T10:21:29.671Z,97533.16
2018-02-09T10:24:00.743Z,97529.39
2018-02-09T10:26:31.888Z,97533.84
2018-02-09T10:29:03.512Z,97528.94
2018-02-09T10:31:34.601Z,97521.77
2018-02-09T10:34:05.635Z,97525.14
2018-02-09T10:36:36.690Z,97526.36
2018-02-09T10:39:07.832Z,97521.95
2018-02-09T10:41:38.949Z,97519.48
2018-02-09T10:44:10.056Z,97518.78
2018-02-09T10:46:41.152Z,97510.22
2018-02-09T10:49:12.227Z,97503.26
2018-02-09T10:51:43.321Z,97503.08
2018-02-09T10:54:14.438Z,97496.87
2018-02-09T10:56:45.502Z,97506.82
2018-02-09T10:59:16.639Z,97491.86
2018-02-09T11:01:47.713Z,97494.98
2018-02-09T11:04:18.851Z,97494.76
2018-02-09T11:06:49.947Z,97493.11
2018-02-09T11:09:27.078Z,97486.42
2018-02-09T11:11:58.228Z,97490.05
2018-02-09T11:14:29.297Z,97480.52
2018-02-09T11:17:00.380Z,97479.95
2018-02-09T11:19:31.465Z,97476.08
2018-02-09T11:22:02.548Z,97470.31
2018-02-09T11:24:33.594Z,97466.78
2018-02-09T11:27:04.707Z,97468.70
2018-02-09T11:29:35.809Z,97464.69
2018-02-09T11:32:06.950Z,97463.40
2018-02-09T11:34:38.036Z,97462.43
2018-02-09T11:37:09.125Z,97456.00
2018-02-09T11:39:40.212Z,97453.97
2018-02-09T11:42:11.313Z,97451.58
2018-02-09T11:44:42.390Z,97452.03
2018-02-09T11:47:13.506Z,97443.97
2018-02-09T11:49:44.583Z,97441.61
2018-02-09T11:52:15.678Z,97435.39
2018-02-09T11:54:46.806Z,97439.66
2018-02-09T11:57:17.845Z,97433.36
2018-02-09T11:59:48.914Z,97432.94
2018-02-09T12:02:19.998Z,97428.50
2018-02-09T12:04:51.056Z,97430.30
2018-02-09T12:07:22.133Z,97424.35
2018-02-09T12:09:53.180Z,97422.59
2018-02-09T12:12:24.402Z,97423.84
2018-02-09T12:14:55.534Z,97425.55
2018-02-09T12:17:26.627Z,97419.97
2018-02-09T12:19:57.658Z,97419.18
2018-02-09T12:22:28.738Z,97416.17
2018-02-09T12:24:59.811Z,97407.82
2018-02-09T12:27:30.910Z,97406.19
2018-02-09T12:30:02.054Z,97407.13
2018-02-09T12:32:33.090Z,97406.70
2018-02-09T12:35:04.313Z,97401.20
2018-02-09T12:37:35.422Z,97397.25
2018-02-09T12:40:06.488Z,97401.16
2018-02-09T12:42:37.601Z,97400.13
2018-02-09T12:45:08.696Z,97399.83
2018-02-09T12:47:39.826Z,97391.43
2018-02-09T12:50:10.855Z,97397.58
2018-02-09T12:52:41.982Z,97391.42
2018-02-09T12:55:13.064Z,97397.94
2018-02-09T12:57:44.201Z,97397.83
2018-02-09T13:00:15.253Z,97389.47
2018-02-09T13:02:46.421Z,97393.69
2018-02-09T13:05:17.471Z,97386.14
2018-02-09T13:07:48.561Z,97390.96
2018-02-09T13:10:19.627Z,97381.78
2018-02-09T13:13:02.888Z,97381.13
2018-02-09T13:15:34.053Z,97387.23
2018-02-09T13:18:05.136Z,97375.13
2018-02-09T13:20:36.177Z,97372.45
2018-02-09T13:23:19.534Z,97372.92
2018-02-09T13:25:50.593Z,97373.78
2018-02-09T13:28:34.041Z,97363.22
2018-02-09T13:31:05.154Z,97368.59
2018-02-09T13:33:36.421Z,97369.73
2018-02-09T13:36:07.474Z,97368.59
2018-02-09T13:38:38.560Z,97373.45
2018-02-09T13:41:09.620Z,97376.09
2018-02-09T13:43:40.713Z,97371.86
2018-02-09T13:46:11.761Z,97364.20
2018-02-09T13:48:42.822Z,97365.29
2018-02-09T13:51:13.964Z,97365.28
2018-02-09T13:53:46.605Z,97372.91
2018-02-09T13:56:17.646Z,97370.30
2018-02-09T13:58:48.747Z,97360.25
2018-02-09T14:01:19.861Z,97365.70
2018-02-09T14:03:50.966Z,97361.25
2018-02-09T14:06:22.114Z,97364.48
2018-02-09T14:08:53.158Z,97364.80
2018-02-09T14:11:24.203Z,97364.66
2018-02-09T14:13:55.272Z,97363.16
2018-02-09T14:16:26.362Z,97356.73
2018-02-09T14:18:57.483Z,97360.55
2018-02-09T14:21:28.593Z,97352.62
2018-02-09T14:23:59.865Z,97358.39
2018-02-09T14:26:30.984Z,97356.96
2018-02-09T14:29:02.086Z,97351.28
2018-02-09T14:31:33.201Z,97354.75
2018-02-09T14:34:04.854Z,97348.73
2018-02-09T14:36:35.934Z,97355.91
2018-02-09T14:39:07.009Z,97353.70
2018-02-09T14:41:38.663Z,97358.81
2018-02-09T14:44:09.731Z,97360.14
2018-02-09T14:46:40.833Z,97359.80
2018-02-09T14:49:11.908Z,97355.27
2018-02-09T14:51:42.962Z,97353.83
2018-02-09T14:54:14.077Z,97354.73
2018-02-09T14:56:45.134Z,97350.52
2018-02-09T14:59:16.337Z,97351.64
2018-02-09T15:01:47.461Z,97351.32
2018-02-09T15:04:18.571Z,97354.30
2018-02-09T15:06:49.641Z,97356.56
2018-02-09T15:09:20.740Z,97354.18
2018-02-09T15:11:51.824Z,97345.34
2018-02-09T15:14:22.891Z,97349.50
2018-02-09T15:16:53.943Z,97347.51
2018-02-09T15:19:25.139Z,97349.11
2018-02-09T15:21:56.930Z,97345.85
2018-02-09T15:24:28.154Z,97349.76
2018-02-09T15:26:59.295Z,97341.93
2018-02-09T15:29:30.374Z,97349.70
2018-02-09T15:32:01.483Z,97344.14
2018-02-09T15:34:32.531Z,97341.70
2018-02-09T15:37:03.714Z,97343.98
2018-02-09T15:39:34.790Z,97330.93
2018-02-09T15:42:06.054Z,97336.75
2018-02-09T15:44:37.959Z,97336.36
2018-02-09T15:47:09.091Z,97332.70
2018-02-09T15:49:41.088Z,97332.52
2018-02-09T15:52:12.192Z,97328.39
2018-02-09T15:54:43.974Z,97329.25
2018-02-09T15:57:15.124Z,97331.06
2018-02-09T15:59:46.186Z,97330.71
2018-02-09T16:04:58.794Z,97331.60
2018-02-09T16:07:29.876Z,97334.97
2018-02-09T16:10:01.493Z,97335.98
2018-02-09T16:12:32.660Z,97336.43
2018-02-09T16:15:04.398Z,97343.84
2018-02-09T16:17:35.629Z,97342.60
2018-02-09T16:20:06.716Z,97340.45
2018-02-09T16:22:37.858Z,97341.23
2018-02-09T16:25:08.934Z,97335.38
2018-02-09T16:27:40.006Z,97342.39
2018-02-09T16:30:11.077Z,97343.05
2018-02-09T16:32:42.196Z,97341.29
2018-02-09T16:35:13.256Z,97343.28
2018-02-09T16:37:44.306Z,97346.53
2018-02-09T16:40:15.346Z,97351.64
2018-02-09T16:42:46.552Z,97348.78
2018-02-09T16:45:17.632Z,97346.88
2018-02-09T16:47:48.757Z,97356.36
2018-02-09T16:50:19.828Z,97353.52
2018-02-09T16:52:50.940Z,97352.16
2018-02-09T16:55:21.992Z,97352.68
2018-02-09T16:57:53.054Z,97359.25
2018-02-09T17:00:24.108Z,97354.28
2018-02-09T17:02:55.172Z,97357.13
2018-02-09T17:05:26.207Z,97351.38
2018-02-09T17:07:57.324Z,97353.47
2018-02-09T17:10:28.424Z,97356.43
2018-02-09T17:12:59.538Z,97359.34
2018-02-09T17:15:30.611Z,97362.23
2018-02-09T17:18:01.724Z,97360.93
2018-02-09T17:20:32.795Z,97361.17
2018-02-09T17:23:03.826Z,97360.91
2018-02-09T17:25:34.883Z,97363.98
2018-02-09T17:28:06.062Z,97365.95
2018-02-09T17:30:37.134Z,97367.16
2018-02-09T17:33:08.182Z,97365.16
2018-02-09T17:35:39.284Z,97368.09
2018-02-09T17:38:10.380Z,97363.02
2018-02-09T17:40:41.448Z,97361.81
2018-02-09T17:43:12.520Z,97367.70
2018-02-09T17:45:43.573Z,97366.49
2018-02-09T17:48:14.654Z,97368.97
2018-02-09T17:50:45.702Z,97370.13
2018-02-09T17:53:16.802Z,97367.73
2018-02-09T17:55:47.875Z,97368.03
2018-02-09T17:58:18.966Z,97369.53
2018-02-09T18:00:50.075Z,97373.94
2018-02-09T18:03:21.608Z,97370.97
2018-02-09T18:05:52.739Z,97373.94
2018-02-09T18:08:23.832Z,97373.13
2018-02-09T18:10:54.914Z,97383.33
2018-02-09T18:13:26.045Z,97384.22
2018-02-09T18:15:57.138Z,97380.38
2018-02-09T18:18:28.218Z,97383.58
2018-02-09T18:20:59.293Z,97385.59
2018-02-09T18:23:30.339Z,97389.91
2018-02-09T18:26:01.426Z,97391.80
2018-02-09T18:28:32.523Z,97391.80
2018-02-09T18:31:03.621Z,97396.62
2018-02-09T18:33:34.660Z,97393.11
2018-02-09T18:36:05.744Z,97403.84
2018-02-09T18:38:36.835Z,97398.83
2018-02-09T18:41:07.885Z,97405.64
2018-02-09T18:43:38.932Z,97403.44
2018-02-09T18:46:10.155Z,97407.48
2018-02-09T18:48:41.247Z,97400.53
2018-02-09T18:51:12.322Z,97402.03
2018-02-09T18:53:44.140Z,97404.54
2018-02-09T18:56:15.213Z,97405.34
2018-02-09T18:58:46.313Z,97399.86
2018-02-09T19:01:17.362Z,97402.47
2018-02-09T19:03:48.455Z,97400.40
2018-02-09T19:06:19.580Z,97400.00
2018-02-09T19:08:50.642Z,97396.69
2018-02-09T19:11:21.702Z,97395.48
2018-02-09T19:13:52.755Z,97398.50
2018-02-09T19:16:23.907Z,97391.02
2018-02-09T19:18:54.958Z,97394.19
2018-02-09T19:21:26.037Z,97398.06
2018-02-09T19:23:57.113Z,97396.35
2018-02-09T19:26:28.167Z,97398.45
2018-02-09T19:28:59.222Z,97394.31
2018-02-09T19:31:30.325Z,97394.98
2018-02-09T19:34:01.435Z,97395.02
2018-02-09T19:36:32.502Z,97394.21
2018-02-09T19:39:03.658Z,97398.56
2018-02-09T19:41:34.686Z,97400.80
2018-02-09T19:44:05.737Z,97405.55
2018-02-09T19:46:36.826Z,97401.50
2018-02-09T19:49:07.930Z,97404.55
2018-02-09T19:51:38.999Z,97405.11
2018-02-09T19:54:10.042Z,97406.69
2018-02-09T19:56:41.094Z,97411.45
2018-02-09T19:59:12.158Z,97404.67
2018-02-09T20:01:43.243Z,97407.91
2018-02-09T20:04:14.343Z,97407.22
2018-02-09T20:06:45.412Z,97411.25
2018-02-09T20:09:16.473Z,97410.22
2018-02-09T20:11:47.571Z,97418.14
2018-02-09T20:14:18.614Z,97418.61
2018-02-09T20:16:49.744Z,97420.48
2018-02-09T20:19:20.781Z,97423.28
2018-02-09T20:21:51.861Z,97426.16
2018-02-09T20:24:22.898Z,97423.19
2018-02-09T20:26:54.003Z,97419.44
2018-02-09T20:32:31.276Z,97428.09
2018-02-09T20:35:02.332Z,97425.48
2018-02-09T20:37:33.393Z,97429.09
2018-02-09T20:40:04.462Z,97430.17
2018-02-09T20:42:35.557Z,97430.90
2018-02-09T20:45:06.614Z,97435.14
2018-02-09T20:47:37.674Z,97436.11
2018-02-09T20:50:09.341Z,97433.37
2018-02-09T20:52:40.356Z,97427.77
2018-02-09T20:55:11.459Z,97425.63
2018-02-09T20:57:42.509Z,97426.09
2018-02-09T21:00:20.636Z,97427.13
2018-02-09T21:02:51.706Z,97421.21
2018-02-09T21:05:22.802Z,97417.34
2018-02-09T21:07:53.856Z,97421.41
2018-02-09T21:10:25.707Z,97422.05
2018-02-09T21:12:56.778Z,97421.72
2018-02-09T21:15:27.924Z,97418.34
2018-02-09T21:17:59.016Z,97417.53
2018-02-09T21:20:30.080Z,97416.43
2018-02-09T21:23:01.197Z,97417.27
2018-02-09T21:25:32.267Z,97409.28
2018-02-09T21:28:03.372Z,97411.36
2018-02-09T21:30:34.444Z,97417.30
2018-02-09T21:33:05.487Z,97409.19
2018-02-09T21:35:36.536Z,97416.97
2018-02-09T21:38:07.620Z,97419.41
2018-02-09T21:40:38.689Z,97413.82
2018-02-09T21:43:09.727Z,97413.15
2018-02-09T21:45:40.921Z,97415.57
2018-02-09T21:48:11.963Z,97414.09
2018-02-09T21:50:43.124Z,97409.39
2018-02-09T21:53:15.008Z,97411.77
2018-02-09T21:55:46.124Z,97409.87
2018-02-09T21:58:17.190Z,97413.15
2018-02-09T22:00:48.281Z,97415.09
2018-02-09T22:03:19.360Z,97417.13
2018-02-09T22:05:50.452Z,97416.02
2018-02-09T22:08:21.486Z,97415.83
2018-02-09T22:10:52.531Z,97416.33
2018-02-09T22:13:23.585Z,97416.86
2018-02-09T22:15:54.658Z,97419.45
2018-02-09T22:18:25.688Z,97410.61
2018-02-09T22:20:56.779Z,97415.39
2018-02-09T22:23:27.861Z,97417.63
2018-02-09T22:25:58.995Z,97415.95
2018-02-09T22:28:30.118Z,97414.75
2018-02-09T22:31:01.152Z,97417.35
2018-02-09T22:33:32.214Z,97416.45
2018-02-09T22:36:03.269Z,97409.77
2018-02-09T22:38:34.367Z,97415.95
2018-02-09T22:41:05.428Z,97403.63
2018-02-09T22:43:36.491Z,97404.16
2018-02-09T22:46:07.505Z,97407.36
2018-02-09T22:48:38.592Z,97404.48
2018-02-09T22:51:09.709Z,97400.67
2018-02-09T22:53:40.735Z,97403.20
2018-02-09T22:56:13.232Z,97402.00
2018-02-09T22:58:44.299Z,97409.22
2018-02-09T23:01:15.414Z,97405.48
2018-02-09T23:03:46.473Z,97409.37
2018-02-09T23:06:17.540Z,97413.25
2018-02-09T23:08:48.653Z,97418.30
2018-02-09T23:11:19.752Z,97414.50
2018-02-09T23:13:50.840Z,97411.59
2018-02-09T23:16:21.923Z,97415.72
2018-02-09T23:18:52.992Z,97417.33
2018-02-09T23:21:24.073Z,97415.50
2018-02-09T23:23:55.111Z,97415.09
2018-02-09T23:26:26.156Z,97415.22
2018-02-09T23:28:57.266Z,97412.23
2018-02-09T23:31:28.335Z,97413.03
2018-02-09T23:33:59.366Z,97415.77
2018-02-09T23:36:30.426Z,97415.22
2018-02-09T23:39:01.529Z,97418.22
2018-02-09T23:41:32.578Z,97416.70
2018-02-09T23:44:03.688Z,97406.26
2018-02-09T23:46:34.812Z,97414.09
2018-02-09T23:49:05.893Z,97417.70
2018-02-09T23:51:36.935Z,97419.10
2018-02-09T23:54:08.046Z,97425.42
2018-02-09T23:56:39.111Z,97421.81
2018-02-09T23:59:10.156Z,97419.31
